sensor_id;sensor_type;location;lat;lon;timestamp;P1;durP1;ratioP1;P2;durP2;ratioP2
37001;SDS011;22913;51.910;8.374;2022-07-31T00:00:38;3.00;;;2.27;;
37001;SDS011;22913;51.910;8.374;2022-07-31T00:03:24;2.90;;;2.33;;
37001;SDS011;22913;51.910;8.374;2022-07-31T00:06:10;2.43;;;2.13;;
37001;SDS011;22913;51.910;8.374;2022-07-31T00:08:55;2.47;;;2.23;;
37001;SDS011;22913;51.910;8.374;2022-07-31T00:11:41;4.57;;;2.73;;
37001;SDS011;22913;51.910;8.374;2022-07-31T00:14:28;3.77;;;2.57;;
37001;SDS011;22913;51.910;8.374;2022-07-31T00:17:13;3.87;;;2.57;;
37001;SDS011;22913;51.910;8.374;2022-07-31T00:19:59;2.97;;;2.60;;
37001;SDS011;22913;51.910;8.374;2022-07-31T00:22:46;4.33;;;3.00;;
37001;SDS011;22913;51.910;8.374;2022-07-31T00:25:33;2.93;;;2.57;;
37001;SDS011;22913;51.910;8.374;2022-07-31T00:28:18;3.70;;;2.73;;
37001;SDS011;22913;51.910;8.374;2022-07-31T00:31:05;3.80;;;2.97;;
37001;SDS011;22913;51.910;8.374;2022-07-31T00:33:50;2.77;;;2.60;;
37001;SDS011;22913;51.910;8.374;2022-07-31T00:36:36;4.27;;;3.10;;
37001;SDS011;22913;51.910;8.374;2022-07-31T00:39:22;3.63;;;2.80;;
37001;SDS011;22913;51.910;8.374;2022-07-31T00:42:15;4.23;;;2.60;;
37001;SDS011;22913;51.910;8.374;2022-07-31T00:45:01;4.03;;;2.50;;
37001;SDS011;22913;51.910;8.374;2022-07-31T00:47:48;5.20;;;2.90;;
37001;SDS011;22913;51.910;8.374;2022-07-31T00:50:34;4.87;;;2.83;;
37001;SDS011;22913;51.910;8.374;2022-07-31T00:53:20;9.53;;;2.73;;
37001;SDS011;22913;51.910;8.374;2022-07-31T00:56:06;3.97;;;2.73;;
37001;SDS011;22913;51.910;8.374;2022-07-31T00:58:51;6.13;;;2.73;;
37001;SDS011;22913;51.910;8.374;2022-07-31T01:01:37;4.47;;;2.70;;
37001;SDS011;22913;51.910;8.374;2022-07-31T01:04:25;4.77;;;2.70;;
37001;SDS011;22913;51.910;8.374;2022-07-31T01:07:10;4.90;;;3.00;;
37001;SDS011;22913;51.910;8.374;2022-07-31T01:09:56;6.03;;;2.80;;
37001;SDS011;22913;51.910;8.374;2022-07-31T01:12:44;3.77;;;2.40;;
37001;SDS011;22913;51.910;8.374;2022-07-31T01:15:34;4.30;;;2.37;;
37001;SDS011;22913;51.910;8.374;2022-07-31T01:18:22;5.73;;;2.47;;
37001;SDS011;22913;51.910;8.374;2022-07-31T01:21:15;5.80;;;3.00;;
37001;SDS011;22913;51.910;8.374;2022-07-31T01:24:19;3.20;;;2.73;;
37001;SDS011;22913;51.910;8.374;2022-07-31T01:27:24;2.97;;;2.60;;
37001;SDS011;22913;51.910;8.374;2022-07-31T01:30:15;5.40;;;3.00;;
37001;SDS011;22913;51.910;8.374;2022-07-31T01:33:04;4.03;;;2.80;;
37001;SDS011;22913;51.910;8.374;2022-07-31T01:35:54;5.63;;;2.60;;
37001;SDS011;22913;51.910;8.374;2022-07-31T01:38:46;3.93;;;2.70;;
37001;SDS011;22913;51.910;8.374;2022-07-31T01:41:37;3.50;;;2.67;;
37001;SDS011;22913;51.910;8.374;2022-07-31T01:44:26;5.97;;;2.83;;
37001;SDS011;22913;51.910;8.374;2022-07-31T01:47:15;5.40;;;2.80;;
37001;SDS011;22913;51.910;8.374;2022-07-31T01:50:04;4.60;;;3.07;;
37001;SDS011;22913;51.910;8.374;2022-07-31T01:52:51;3.93;;;2.73;;
37001;SDS011;22913;51.910;8.374;2022-07-31T01:55:39;5.30;;;2.93;;
37001;SDS011;22913;51.910;8.374;2022-07-31T01:58:26;2.67;;;2.47;;
37001;SDS011;22913;51.910;8.374;2022-07-31T02:01:13;3.57;;;2.83;;
37001;SDS011;22913;51.910;8.374;2022-07-31T02:04:01;4.27;;;2.83;;
37001;SDS011;22913;51.910;8.374;2022-07-31T02:06:48;5.40;;;2.70;;
37001;SDS011;22913;51.910;8.374;2022-07-31T02:09:34;4.60;;;2.67;;
37001;SDS011;22913;51.910;8.374;2022-07-31T02:12:21;3.40;;;2.67;;
37001;SDS011;22913;51.910;8.374;2022-07-31T02:15:08;3.30;;;3.00;;
37001;SDS011;22913;51.910;8.374;2022-07-31T02:17:57;3.23;;;2.93;;
37001;SDS011;22913;51.910;8.374;2022-07-31T02:20:47;3.37;;;3.03;;
37001;SDS011;22913;51.910;8.374;2022-07-31T02:23:34;4.97;;;3.30;;
37001;SDS011;22913;51.910;8.374;2022-07-31T02:26:19;4.33;;;3.23;;
37001;SDS011;22913;51.910;8.374;2022-07-31T02:29:07;4.23;;;3.20;;
37001;SDS011;22913;51.910;8.374;2022-07-31T02:31:54;3.40;;;3.10;;
37001;SDS011;22913;51.910;8.374;2022-07-31T02:34:41;3.70;;;3.40;;
37001;SDS011;22913;51.910;8.374;2022-07-31T02:37:29;6.77;;;3.27;;
37001;SDS011;22913;51.910;8.374;2022-07-31T02:40:16;5.47;;;3.57;;
37001;SDS011;22913;51.910;8.374;2022-07-31T02:43:04;5.90;;;4.37;;
37001;SDS011;22913;51.910;8.374;2022-07-31T02:45:49;5.20;;;3.77;;
37001;SDS011;22913;51.910;8.374;2022-07-31T02:48:35;4.87;;;3.90;;
37001;SDS011;22913;51.910;8.374;2022-07-31T02:51:22;4.77;;;4.30;;
37001;SDS011;22913;51.910;8.374;2022-07-31T02:54:09;5.57;;;3.93;;
37001;SDS011;22913;51.910;8.374;2022-07-31T02:56:55;4.23;;;3.73;;
37001;SDS011;22913;51.910;8.374;2022-07-31T02:59:41;5.17;;;4.20;;
37001;SDS011;22913;51.910;8.374;2022-07-31T03:02:27;4.33;;;3.93;;
37001;SDS011;22913;51.910;8.374;2022-07-31T03:05:13;4.67;;;4.13;;
37001;SDS011;22913;51.910;8.374;2022-07-31T03:07:59;6.10;;;3.80;;
37001;SDS011;22913;51.910;8.374;2022-07-31T03:10:46;4.57;;;4.10;;
37001;SDS011;22913;51.910;8.374;2022-07-31T03:13:32;5.67;;;3.97;;
37001;SDS011;22913;51.910;8.374;2022-07-31T03:16:19;4.57;;;4.17;;
37001;SDS011;22913;51.910;8.374;2022-07-31T03:19:06;4.80;;;4.30;;
37001;SDS011;22913;51.910;8.374;2022-07-31T03:21:53;4.70;;;4.33;;
37001;SDS011;22913;51.910;8.374;2022-07-31T03:24:39;5.13;;;4.10;;
37001;SDS011;22913;51.910;8.374;2022-07-31T03:27:26;10.03;;;4.20;;
37001;SDS011;22913;51.910;8.374;2022-07-31T03:30:14;5.03;;;4.53;;
37001;SDS011;22913;51.910;8.374;2022-07-31T03:33:01;5.70;;;4.03;;
37001;SDS011;22913;51.910;8.374;2022-07-31T03:35:47;5.60;;;4.97;;
37001;SDS011;22913;51.910;8.374;2022-07-31T03:38:33;6.23;;;4.57;;
37001;SDS011;22913;51.910;8.374;2022-07-31T03:41:19;5.03;;;4.17;;
37001;SDS011;22913;51.910;8.374;2022-07-31T03:44:06;5.90;;;4.40;;
37001;SDS011;22913;51.910;8.374;2022-07-31T03:46:52;4.80;;;4.37;;
37001;SDS011;22913;51.910;8.374;2022-07-31T03:49:38;5.80;;;5.00;;
37001;SDS011;22913;51.910;8.374;2022-07-31T03:52:25;6.10;;;4.80;;
37001;SDS011;22913;51.910;8.374;2022-07-31T03:55:11;5.37;;;4.93;;
37001;SDS011;22913;51.910;8.374;2022-07-31T03:57:57;5.57;;;4.90;;
37001;SDS011;22913;51.910;8.374;2022-07-31T04:00:45;5.37;;;4.63;;
37001;SDS011;22913;51.910;8.374;2022-07-31T04:03:31;5.33;;;4.83;;
37001;SDS011;22913;51.910;8.374;2022-07-31T04:06:17;5.20;;;4.40;;
37001;SDS011;22913;51.910;8.374;2022-07-31T04:09:03;4.80;;;4.30;;
37001;SDS011;22913;51.910;8.374;2022-07-31T04:11:48;5.03;;;4.53;;
37001;SDS011;22913;51.910;8.374;2022-07-31T04:14:34;6.43;;;5.30;;
37001;SDS011;22913;51.910;8.374;2022-07-31T04:17:20;5.27;;;4.60;;
37001;SDS011;22913;51.910;8.374;2022-07-31T04:20:06;4.30;;;4.00;;
37001;SDS011;22913;51.910;8.374;2022-07-31T04:22:53;5.30;;;4.80;;
37001;SDS011;22913;51.910;8.374;2022-07-31T04:25:39;5.47;;;4.37;;
37001;SDS011;22913;51.910;8.374;2022-07-31T04:28:24;6.90;;;4.80;;
37001;SDS011;22913;51.910;8.374;2022-07-31T04:31:10;4.30;;;3.80;;
37001;SDS011;22913;51.910;8.374;2022-07-31T04:33:57;7.47;;;4.77;;
37001;SDS011;22913;51.910;8.374;2022-07-31T04:36:43;4.70;;;4.30;;
37001;SDS011;22913;51.910;8.374;2022-07-31T04:39:28;4.63;;;4.20;;
37001;SDS011;22913;51.910;8.374;2022-07-31T04:42:14;4.90;;;4.37;;
37001;SDS011;22913;51.910;8.374;2022-07-31T04:45:00;6.27;;;4.27;;
37001;SDS011;22913;51.910;8.374;2022-07-31T04:47:45;4.50;;;4.10;;
37001;SDS011;22913;51.910;8.374;2022-07-31T04:50:32;4.13;;;3.83;;
37001;SDS011;22913;51.910;8.374;2022-07-31T04:53:18;4.60;;;4.30;;
37001;SDS011;22913;51.910;8.374;2022-07-31T04:56:03;4.50;;;4.10;;
37001;SDS011;22913;51.910;8.374;2022-07-31T04:59:08;4.77;;;4.33;;
37001;SDS011;22913;51.910;8.374;2022-07-31T05:01:55;4.93;;;4.10;;
37001;SDS011;22913;51.910;8.374;2022-07-31T05:04:40;4.70;;;4.30;;
37001;SDS011;22913;51.910;8.374;2022-07-31T05:07:27;5.70;;;4.13;;
37001;SDS011;22913;51.910;8.374;2022-07-31T05:10:13;4.43;;;4.10;;
37001;SDS011;22913;51.910;8.374;2022-07-31T05:13:12;4.97;;;3.90;;
37001;SDS011;22913;51.910;8.374;2022-07-31T05:15:58;4.87;;;4.07;;
37001;SDS011;22913;51.910;8.374;2022-07-31T05:18:44;4.57;;;3.87;;
37001;SDS011;22913;51.910;8.374;2022-07-31T05:21:30;3.83;;;3.53;;
37001;SDS011;22913;51.910;8.374;2022-07-31T05:24:17;4.47;;;3.57;;
37001;SDS011;22913;51.910;8.374;2022-07-31T05:27:02;4.20;;;3.80;;
37001;SDS011;22913;51.910;8.374;2022-07-31T05:29:48;4.63;;;4.10;;
37001;SDS011;22913;51.910;8.374;2022-07-31T05:32:34;6.37;;;4.03;;
37001;SDS011;22913;51.910;8.374;2022-07-31T05:35:20;4.10;;;3.80;;
37001;SDS011;22913;51.910;8.374;2022-07-31T05:38:06;4.03;;;3.73;;
37001;SDS011;22913;51.910;8.374;2022-07-31T05:40:53;3.97;;;3.67;;
37001;SDS011;22913;51.910;8.374;2022-07-31T05:43:39;5.50;;;3.77;;
37001;SDS011;22913;51.910;8.374;2022-07-31T05:46:25;4.40;;;4.00;;
37001;SDS011;22913;51.910;8.374;2022-07-31T05:49:11;3.83;;;3.50;;
37001;SDS011;22913;51.910;8.374;2022-07-31T05:51:57;7.03;;;3.53;;
37001;SDS011;22913;51.910;8.374;2022-07-31T05:54:43;3.80;;;3.50;;
37001;SDS011;22913;51.910;8.374;2022-07-31T05:57:31;3.93;;;3.63;;
37001;SDS011;22913;51.910;8.374;2022-07-31T06:00:16;5.57;;;3.00;;
37001;SDS011;22913;51.910;8.374;2022-07-31T06:03:03;3.53;;;3.23;;
37001;SDS011;22913;51.910;8.374;2022-07-31T06:05:49;7.40;;;3.83;;
37001;SDS011;22913;51.910;8.374;2022-07-31T06:08:35;4.93;;;3.20;;
37001;SDS011;22913;51.910;8.374;2022-07-31T06:11:21;4.20;;;3.40;;
37001;SDS011;22913;51.910;8.374;2022-07-31T06:14:09;4.63;;;3.30;;
37001;SDS011;22913;51.910;8.374;2022-07-31T06:16:54;4.10;;;3.30;;
37001;SDS011;22913;51.910;8.374;2022-07-31T06:19:40;4.87;;;3.20;;
37001;SDS011;22913;51.910;8.374;2022-07-31T06:22:25;3.33;;;3.13;;
37001;SDS011;22913;51.910;8.374;2022-07-31T06:25:11;3.60;;;3.30;;
37001;SDS011;22913;51.910;8.374;2022-07-31T06:27:57;3.13;;;2.93;;
37001;SDS011;22913;51.910;8.374;2022-07-31T06:30:44;4.30;;;3.20;;
37001;SDS011;22913;51.910;8.374;2022-07-31T06:33:30;3.77;;;3.00;;
37001;SDS011;22913;51.910;8.374;2022-07-31T06:36:16;4.83;;;3.20;;
37001;SDS011;22913;51.910;8.374;2022-07-31T06:39:02;4.00;;;2.70;;
37001;SDS011;22913;51.910;8.374;2022-07-31T06:41:48;3.60;;;3.10;;
37001;SDS011;22913;51.910;8.374;2022-07-31T06:44:35;5.27;;;3.10;;
37001;SDS011;22913;51.910;8.374;2022-07-31T06:47:24;5.43;;;3.10;;
37001;SDS011;22913;51.910;8.374;2022-07-31T06:50:10;5.53;;;3.20;;
37001;SDS011;22913;51.910;8.374;2022-07-31T06:52:59;5.47;;;3.30;;
37001;SDS011;22913;51.910;8.374;2022-07-31T06:55:45;3.60;;;3.30;;
37001;SDS011;22913;51.910;8.374;2022-07-31T06:58:31;4.77;;;3.10;;
37001;SDS011;22913;51.910;8.374;2022-07-31T07:01:16;3.77;;;3.27;;
37001;SDS011;22913;51.910;8.374;2022-07-31T07:04:04;3.97;;;3.53;;
37001;SDS011;22913;51.910;8.374;2022-07-31T07:06:50;3.60;;;3.30;;
37001;SDS011;22913;51.910;8.374;2022-07-31T07:09:36;9.10;;;3.57;;
37001;SDS011;22913;51.910;8.374;2022-07-31T07:12:22;3.90;;;3.50;;
37001;SDS011;22913;51.910;8.374;2022-07-31T07:15:08;3.87;;;3.50;;
37001;SDS011;22913;51.910;8.374;2022-07-31T07:17:54;4.73;;;3.40;;
37001;SDS011;22913;51.910;8.374;2022-07-31T07:20:41;3.93;;;3.57;;
37001;SDS011;22913;51.910;8.374;2022-07-31T07:23:26;4.57;;;3.50;;
37001;SDS011;22913;51.910;8.374;2022-07-31T07:26:12;5.17;;;3.43;;
37001;SDS011;22913;51.910;8.374;2022-07-31T07:28:58;7.60;;;3.73;;
37001;SDS011;22913;51.910;8.374;2022-07-31T07:31:45;3.67;;;3.27;;
37001;SDS011;22913;51.910;8.374;2022-07-31T07:34:30;4.03;;;3.23;;
37001;SDS011;22913;51.910;8.374;2022-07-31T07:37:17;3.93;;;3.00;;
37001;SDS011;22913;51.910;8.374;2022-07-31T07:40:04;5.53;;;3.53;;
37001;SDS011;22913;51.910;8.374;2022-07-31T07:42:51;4.90;;;3.27;;
37001;SDS011;22913;51.910;8.374;2022-07-31T07:45:37;3.83;;;3.43;;
37001;SDS011;22913;51.910;8.374;2022-07-31T07:48:22;3.90;;;3.50;;
37001;SDS011;22913;51.910;8.374;2022-07-31T07:51:08;4.60;;;3.37;;
37001;SDS011;22913;51.910;8.374;2022-07-31T07:53:55;5.07;;;3.40;;
37001;SDS011;22913;51.910;8.374;2022-07-31T07:56:40;3.33;;;3.03;;
37001;SDS011;22913;51.910;8.374;2022-07-31T07:59:27;4.13;;;3.27;;
37001;SDS011;22913;51.910;8.374;2022-07-31T08:02:13;4.17;;;3.17;;
37001;SDS011;22913;51.910;8.374;2022-07-31T08:04:59;3.13;;;2.70;;
37001;SDS011;22913;51.910;8.374;2022-07-31T08:07:44;2.97;;;2.73;;
37001;SDS011;22913;51.910;8.374;2022-07-31T08:10:31;3.47;;;3.17;;
37001;SDS011;22913;51.910;8.374;2022-07-31T08:13:17;5.20;;;3.10;;
37001;SDS011;22913;51.910;8.374;2022-07-31T08:16:03;4.33;;;3.43;;
37001;SDS011;22913;51.910;8.374;2022-07-31T08:18:49;3.37;;;3.03;;
37001;SDS011;22913;51.910;8.374;2022-07-31T08:21:35;3.83;;;3.33;;
37001;SDS011;22913;51.910;8.374;2022-07-31T08:24:21;4.70;;;3.13;;
37001;SDS011;22913;51.910;8.374;2022-07-31T08:27:08;4.23;;;2.90;;
37001;SDS011;22913;51.910;8.374;2022-07-31T08:30:10;3.30;;;3.00;;
37001;SDS011;22913;51.910;8.374;2022-07-31T08:32:56;5.17;;;2.90;;
37001;SDS011;22913;51.910;8.374;2022-07-31T08:35:41;3.30;;;3.03;;
37001;SDS011;22913;51.910;8.374;2022-07-31T08:38:27;5.67;;;3.00;;
37001;SDS011;22913;51.910;8.374;2022-07-31T08:41:13;6.60;;;2.70;;
37001;SDS011;22913;51.910;8.374;2022-07-31T08:44:00;3.30;;;3.00;;
37001;SDS011;22913;51.910;8.374;2022-07-31T08:46:45;2.53;;;2.33;;
37001;SDS011;22913;51.910;8.374;2022-07-31T08:49:32;3.40;;;2.83;;
37001;SDS011;22913;51.910;8.374;2022-07-31T08:52:22;3.17;;;2.80;;
37001;SDS011;22913;51.910;8.374;2022-07-31T08:55:09;4.37;;;2.57;;
37001;SDS011;22913;51.910;8.374;2022-07-31T08:57:57;5.07;;;2.73;;
37001;SDS011;22913;51.910;8.374;2022-07-31T09:00:45;3.50;;;2.50;;
37001;SDS011;22913;51.910;8.374;2022-07-31T09:03:31;2.80;;;2.60;;
37001;SDS011;22913;51.910;8.374;2022-07-31T09:06:19;2.67;;;2.40;;
37001;SDS011;22913;51.910;8.374;2022-07-31T09:09:04;4.87;;;2.47;;
37001;SDS011;22913;51.910;8.374;2022-07-31T09:11:50;2.97;;;2.70;;
37001;SDS011;22913;51.910;8.374;2022-07-31T09:14:37;3.13;;;2.20;;
37001;SDS011;22913;51.910;8.374;2022-07-31T09:17:31;3.80;;;2.60;;
37001;SDS011;22913;51.910;8.374;2022-07-31T09:20:18;3.97;;;2.40;;
37001;SDS011;22913;51.910;8.374;2022-07-31T09:23:05;2.40;;;2.20;;
37001;SDS011;22913;51.910;8.374;2022-07-31T09:25:53;2.00;;;1.90;;
37001;SDS011;22913;51.910;8.374;2022-07-31T09:28:47;2.90;;;2.50;;
37001;SDS011;22913;51.910;8.374;2022-07-31T09:31:34;3.33;;;2.10;;
37001;SDS011;22913;51.910;8.374;2022-07-31T09:34:26;2.17;;;1.93;;
37001;SDS011;22913;51.910;8.374;2022-07-31T09:37:12;2.83;;;2.57;;
37001;SDS011;22913;51.910;8.374;2022-07-31T09:39:59;3.20;;;2.30;;
37001;SDS011;22913;51.910;8.374;2022-07-31T09:42:44;3.20;;;2.27;;
37001;SDS011;22913;51.910;8.374;2022-07-31T09:45:31;2.33;;;1.93;;
37001;SDS011;22913;51.910;8.374;2022-07-31T09:48:17;3.17;;;2.30;;
37001;SDS011;22913;51.910;8.374;2022-07-31T09:51:06;2.70;;;2.07;;
37001;SDS011;22913;51.910;8.374;2022-07-31T09:53:52;3.27;;;2.50;;
37001;SDS011;22913;51.910;8.374;2022-07-31T09:56:40;2.07;;;1.90;;
37001;SDS011;22913;51.910;8.374;2022-07-31T09:59:27;4.03;;;2.50;;
37001;SDS011;22913;51.910;8.374;2022-07-31T10:02:13;3.30;;;2.20;;
37001;SDS011;22913;51.910;8.374;2022-07-31T10:05:00;4.73;;;2.47;;
37001;SDS011;22913;51.910;8.374;2022-07-31T10:07:49;2.10;;;1.90;;
37001;SDS011;22913;51.910;8.374;2022-07-31T10:10:35;2.40;;;2.20;;
37001;SDS011;22913;51.910;8.374;2022-07-31T10:13:21;2.80;;;2.10;;
37001;SDS011;22913;51.910;8.374;2022-07-31T10:16:08;3.83;;;1.93;;
37001;SDS011;22913;51.910;8.374;2022-07-31T10:18:55;2.40;;;2.20;;
37001;SDS011;22913;51.910;8.374;2022-07-31T10:21:46;1.80;;;1.70;;
37001;SDS011;22913;51.910;8.374;2022-07-31T10:24:42;2.00;;;1.90;;
37001;SDS011;22913;51.910;8.374;2022-07-31T10:27:31;5.00;;;1.87;;
37001;SDS011;22913;51.910;8.374;2022-07-31T10:30:16;1.83;;;1.73;;
37001;SDS011;22913;51.910;8.374;2022-07-31T10:33:02;1.80;;;1.70;;
37001;SDS011;22913;51.910;8.374;2022-07-31T10:35:50;1.90;;;1.80;;
37001;SDS011;22913;51.910;8.374;2022-07-31T10:38:44;1.90;;;1.60;;
37001;SDS011;22913;51.910;8.374;2022-07-31T10:41:53;1.97;;;1.80;;
37001;SDS011;22913;51.910;8.374;2022-07-31T10:44:43;2.43;;;2.00;;
37001;SDS011;22913;51.910;8.374;2022-07-31T10:47:32;2.30;;;2.10;;
37001;SDS011;22913;51.910;8.374;2022-07-31T10:50:20;4.40;;;2.33;;
37001;SDS011;22913;51.910;8.374;2022-07-31T10:53:06;2.83;;;2.03;;
37001;SDS011;22913;51.910;8.374;2022-07-31T10:55:58;2.30;;;2.10;;
37001;SDS011;22913;51.910;8.374;2022-07-31T10:58:50;2.10;;;2.00;;
37001;SDS011;22913;51.910;8.374;2022-07-31T11:01:43;2.57;;;2.37;;
37001;SDS011;22913;51.910;8.374;2022-07-31T11:04:30;3.50;;;2.20;;
37001;SDS011;22913;51.910;8.374;2022-07-31T11:07:16;3.00;;;2.20;;
37001;SDS011;22913;51.910;8.374;2022-07-31T11:10:10;3.00;;;2.03;;
37001;SDS011;22913;51.910;8.374;2022-07-31T11:13:01;2.63;;;2.30;;
37001;SDS011;22913;51.910;8.374;2022-07-31T11:15:49;3.90;;;2.77;;
37001;SDS011;22913;51.910;8.374;2022-07-31T11:18:36;2.57;;;2.37;;
37001;SDS011;22913;51.910;8.374;2022-07-31T11:21:28;2.80;;;2.60;;
37001;SDS011;22913;51.910;8.374;2022-07-31T11:24:16;3.67;;;2.70;;
37001;SDS011;22913;51.910;8.374;2022-07-31T11:27:02;2.90;;;2.50;;
37001;SDS011;22913;51.910;8.374;2022-07-31T11:29:48;3.33;;;2.33;;
37001;SDS011;22913;51.910;8.374;2022-07-31T11:32:36;3.80;;;2.57;;
37001;SDS011;22913;51.910;8.374;2022-07-31T11:35:28;3.20;;;2.90;;
37001;SDS011;22913;51.910;8.374;2022-07-31T11:38:14;4.90;;;2.40;;
37001;SDS011;22913;51.910;8.374;2022-07-31T11:40:59;2.87;;;2.20;;
37001;SDS011;22913;51.910;8.374;2022-07-31T11:43:46;3.57;;;2.70;;
37001;SDS011;22913;51.910;8.374;2022-07-31T11:46:35;4.27;;;2.60;;
37001;SDS011;22913;51.910;8.374;2022-07-31T11:49:22;3.73;;;1.90;;
37001;SDS011;22913;51.910;8.374;2022-07-31T11:52:09;3.20;;;1.90;;
37001;SDS011;22913;51.910;8.374;2022-07-31T11:55:01;2.03;;;1.90;;
37001;SDS011;22913;51.910;8.374;2022-07-31T11:57:48;1.97;;;1.87;;
37001;SDS011;22913;51.910;8.374;2022-07-31T12:00:33;2.10;;;1.90;;
37001;SDS011;22913;51.910;8.374;2022-07-31T12:03:20;2.43;;;1.90;;
37001;SDS011;22913;51.910;8.374;2022-07-31T12:06:08;1.90;;;1.50;;
37001;SDS011;22913;51.910;8.374;2022-07-31T12:08:55;4.00;;;1.60;;
37001;SDS011;22913;51.910;8.374;2022-07-31T12:11:41;2.13;;;1.90;;
37001;SDS011;22913;51.910;8.374;2022-07-31T12:14:27;2.50;;;1.97;;
37001;SDS011;22913;51.910;8.374;2022-07-31T12:17:17;1.87;;;1.77;;
37001;SDS011;22913;51.910;8.374;2022-07-31T12:20:05;2.17;;;1.70;;
37001;SDS011;22913;51.910;8.374;2022-07-31T12:22:56;3.50;;;1.93;;
37001;SDS011;22913;51.910;8.374;2022-07-31T12:25:42;2.50;;;1.83;;
37001;SDS011;22913;51.910;8.374;2022-07-31T12:28:29;1.70;;;1.60;;
37001;SDS011;22913;51.910;8.374;2022-07-31T12:31:15;2.13;;;1.90;;
37001;SDS011;22913;51.910;8.374;2022-07-31T12:34:01;2.00;;;1.90;;
37001;SDS011;22913;51.910;8.374;2022-07-31T12:36:55;2.73;;;2.23;;
37001;SDS011;22913;51.910;8.374;2022-07-31T12:39:50;2.00;;;1.90;;
37001;SDS011;22913;51.910;8.374;2022-07-31T12:42:37;2.17;;;2.00;;
37001;SDS011;22913;51.910;8.374;2022-07-31T12:45:30;2.53;;;1.60;;
37001;SDS011;22913;51.910;8.374;2022-07-31T12:48:18;2.30;;;1.60;;
37001;SDS011;22913;51.910;8.374;2022-07-31T12:51:03;2.70;;;1.97;;
37001;SDS011;22913;51.910;8.374;2022-07-31T12:53:50;3.03;;;2.33;;
37001;SDS011;22913;51.910;8.374;2022-07-31T12:56:38;2.97;;;1.77;;
37001;SDS011;22913;51.910;8.374;2022-07-31T12:59:24;2.60;;;2.20;;
37001;SDS011;22913;51.910;8.374;2022-07-31T13:02:10;3.13;;;1.80;;
37001;SDS011;22913;51.910;8.374;2022-07-31T13:04:56;1.80;;;1.60;;
37001;SDS011;22913;51.910;8.374;2022-07-31T13:07:41;1.43;;;1.40;;
37001;SDS011;22913;51.910;8.374;2022-07-31T13:10:27;1.80;;;1.70;;
37001;SDS011;22913;51.910;8.374;2022-07-31T13:13:14;2.83;;;1.90;;
37001;SDS011;22913;51.910;8.374;2022-07-31T13:16:01;3.63;;;1.60;;
37001;SDS011;22913;51.910;8.374;2022-07-31T13:18:47;1.70;;;1.60;;
37001;SDS011;22913;51.910;8.374;2022-07-31T13:21:32;1.67;;;1.57;;
37001;SDS011;22913;51.910;8.374;2022-07-31T13:24:19;1.80;;;1.70;;
37001;SDS011;22913;51.910;8.374;2022-07-31T13:27:05;1.97;;;1.60;;
37001;SDS011;22913;51.910;8.374;2022-07-31T13:29:52;1.70;;;1.60;;
37001;SDS011;22913;51.910;8.374;2022-07-31T13:32:38;2.20;;;1.70;;
37001;SDS011;22913;51.910;8.374;2022-07-31T13:35:24;3.17;;;1.67;;
37001;SDS011;22913;51.910;8.374;2022-07-31T13:38:10;2.23;;;2.03;;
37001;SDS011;22913;51.910;8.374;2022-07-31T13:40:57;2.40;;;2.20;;
37001;SDS011;22913;51.910;8.374;2022-07-31T13:44:01;2.23;;;2.03;;
37001;SDS011;22913;51.910;8.374;2022-07-31T13:46:48;1.93;;;1.73;;
37001;SDS011;22913;51.910;8.374;2022-07-31T13:49:34;2.37;;;2.17;;
37001;SDS011;22913;51.910;8.374;2022-07-31T13:52:19;3.57;;;2.17;;
37001;SDS011;22913;51.910;8.374;2022-07-31T13:55:05;2.37;;;2.10;;
37001;SDS011;22913;51.910;8.374;2022-07-31T13:57:51;2.37;;;2.20;;
37001;SDS011;22913;51.910;8.374;2022-07-31T14:00:37;5.10;;;2.50;;
37001;SDS011;22913;51.910;8.374;2022-07-31T14:03:24;3.57;;;2.10;;
37001;SDS011;22913;51.910;8.374;2022-07-31T14:06:10;2.57;;;2.30;;
37001;SDS011;22913;51.910;8.374;2022-07-31T14:08:56;4.57;;;2.37;;
37001;SDS011;22913;51.910;8.374;2022-07-31T14:11:41;2.43;;;2.23;;
37001;SDS011;22913;51.910;8.374;2022-07-31T14:14:27;2.93;;;2.30;;
37001;SDS011;22913;51.910;8.374;2022-07-31T14:17:12;3.03;;;2.40;;
37001;SDS011;22913;51.910;8.374;2022-07-31T14:20:00;2.20;;;2.00;;
37001;SDS011;22913;51.910;8.374;2022-07-31T14:22:45;2.67;;;2.43;;
37001;SDS011;22913;51.910;8.374;2022-07-31T14:25:31;2.77;;;2.50;;
37001;SDS011;22913;51.910;8.374;2022-07-31T14:28:17;3.03;;;2.60;;
37001;SDS011;22913;51.910;8.374;2022-07-31T14:31:02;2.27;;;2.10;;
37001;SDS011;22913;51.910;8.374;2022-07-31T14:33:48;2.50;;;2.30;;
37001;SDS011;22913;51.910;8.374;2022-07-31T14:36:35;3.43;;;2.40;;
37001;SDS011;22913;51.910;8.374;2022-07-31T14:39:20;3.80;;;2.50;;
37001;SDS011;22913;51.910;8.374;2022-07-31T14:42:06;3.83;;;2.70;;
37001;SDS011;22913;51.910;8.374;2022-07-31T14:44:52;2.47;;;2.30;;
37001;SDS011;22913;51.910;8.374;2022-07-31T14:47:37;4.13;;;2.50;;
37001;SDS011;22913;51.910;8.374;2022-07-31T14:50:23;3.30;;;2.20;;
37001;SDS011;22913;51.910;8.374;2022-07-31T14:53:10;2.83;;;2.63;;
37001;SDS011;22913;51.910;8.374;2022-07-31T14:55:55;2.67;;;2.47;;
37001;SDS011;22913;51.910;8.374;2022-07-31T14:58:41;3.00;;;2.70;;
37001;SDS011;22913;51.910;8.374;2022-07-31T15:01:26;2.40;;;2.20;;
37001;SDS011;22913;51.910;8.374;2022-07-31T15:04:12;2.17;;;2.03;;
37001;SDS011;22913;51.910;8.374;2022-07-31T15:06:58;2.40;;;2.20;;
37001;SDS011;22913;51.910;8.374;2022-07-31T15:09:45;3.03;;;2.67;;
37001;SDS011;22913;51.910;8.374;2022-07-31T15:12:30;2.50;;;2.30;;
37001;SDS011;22913;51.910;8.374;2022-07-31T15:15:16;2.57;;;2.17;;
37001;SDS011;22913;51.910;8.374;2022-07-31T15:18:02;3.30;;;2.33;;
37001;SDS011;22913;51.910;8.374;2022-07-31T15:20:47;2.63;;;2.43;;
37001;SDS011;22913;51.910;8.374;2022-07-31T15:23:33;3.57;;;2.60;;
37001;SDS011;22913;51.910;8.374;2022-07-31T15:26:21;2.90;;;2.60;;
37001;SDS011;22913;51.910;8.374;2022-07-31T15:29:06;3.97;;;2.77;;
37001;SDS011;22913;51.910;8.374;2022-07-31T15:31:52;3.00;;;2.80;;
37001;SDS011;22913;51.910;8.374;2022-07-31T15:34:38;2.40;;;2.30;;
37001;SDS011;22913;51.910;8.374;2022-07-31T15:37:23;2.70;;;2.50;;
37001;SDS011;22913;51.910;8.374;2022-07-31T15:40:10;3.63;;;3.00;;
37001;SDS011;22913;51.910;8.374;2022-07-31T15:42:58;2.57;;;2.37;;
37001;SDS011;22913;51.910;8.374;2022-07-31T15:45:44;3.40;;;2.57;;
37001;SDS011;22913;51.910;8.374;2022-07-31T15:48:29;2.57;;;2.23;;
37001;SDS011;22913;51.910;8.374;2022-07-31T15:51:15;2.83;;;2.63;;
37001;SDS011;22913;51.910;8.374;2022-07-31T15:54:01;3.77;;;3.00;;
37001;SDS011;22913;51.910;8.374;2022-07-31T15:56:47;3.20;;;2.90;;
37001;SDS011;22913;51.910;8.374;2022-07-31T15:59:34;3.47;;;2.50;;
37001;SDS011;22913;51.910;8.374;2022-07-31T16:02:20;2.53;;;2.33;;
37001;SDS011;22913;51.910;8.374;2022-07-31T16:05:07;3.03;;;2.83;;
37001;SDS011;22913;51.910;8.374;2022-07-31T16:07:53;3.20;;;2.97;;
37001;SDS011;22913;51.910;8.374;2022-07-31T16:10:39;5.63;;;4.63;;
37001;SDS011;22913;51.910;8.374;2022-07-31T16:13:24;3.97;;;3.67;;
37001;SDS011;22913;51.910;8.374;2022-07-31T16:16:11;5.00;;;4.40;;
37001;SDS011;22913;51.910;8.374;2022-07-31T16:18:57;4.33;;;3.93;;
37001;SDS011;22913;51.910;8.374;2022-07-31T16:21:42;5.07;;;4.00;;
37001;SDS011;22913;51.910;8.374;2022-07-31T16:24:28;3.90;;;3.00;;
37001;SDS011;22913;51.910;8.374;2022-07-31T16:27:14;3.77;;;3.13;;
37001;SDS011;22913;51.910;8.374;2022-07-31T16:30:00;3.90;;;2.70;;
37001;SDS011;22913;51.910;8.374;2022-07-31T16:32:47;4.10;;;2.77;;
37001;SDS011;22913;51.910;8.374;2022-07-31T16:35:33;3.33;;;2.53;;
37001;SDS011;22913;51.910;8.374;2022-07-31T16:38:19;3.33;;;2.27;;
37001;SDS011;22913;51.910;8.374;2022-07-31T16:41:04;2.83;;;2.63;;
37001;SDS011;22913;51.910;8.374;2022-07-31T16:43:50;2.80;;;2.60;;
37001;SDS011;22913;51.910;8.374;2022-07-31T16:46:36;3.73;;;2.77;;